Time;durP1;ratioP1;P1;durP2;ratioP2;P2;SDS_P1;SDS_P2;PMS_P1;PMS_P2;Temp;Humidity;BMP_temperature;BMP_pressure;BME280_temperature;BME280_humidity;BME280_pressure;Samples;Min_cycle;Max_cycle;Signal;HPM_P1;HPM_P2
2022/12/22 03:26:18;;;;;;;20.90;15.37;;;0.70;99.90;;;;;;5052670;28;20307;-81
2022/12/22 03:28:46;;;;;;;25.90;16.53;;;0.70;99.90;;;;;;5052751;28;20216;-81
2022/12/22 03:31:15;;;;;;;21.17;15.53;;;0.70;99.90;;;;;;5052647;28;20213;-81
2022/12/22 03:33:44;;;;;;;19.53;14.67;;;0.60;99.90;;;;;;5052498;28;20205;-82
2022/12/22 03:36:13;;;;;;;21.00;14.57;;;0.60;99.90;;;;;;5052425;28;20233;-81
2022/12/22 03:38:41;;;;;;;24.30;15.23;;;0.60;99.90;;;;;;5052360;28;20216;-81
2022/12/22 03:46:28;;;;;;;23.25;15.88;;;0.60;99.90;;;;;;5052523;28;20230;-83
2022/12/22 03:46:49;;;;;;;22.17;14.60;;;0.60;99.90;;;;;;4978406;28;20220;-81
2022/12/22 03:49:21;;;;;;;23.63;15.43;;;0.60;99.90;;;;;;5052272;28;20201;-80
2022/12/22 03:51:50;;;;;;;18.87;14.67;;;0.60;99.90;;;;;;5052365;28;20210;-81
2022/12/22 03:54:21;;;;;;;26.57;15.97;;;0.50;99.90;;;;;;5052245;28;20244;-81
2022/12/22 03:56:50;;;;;;;24.30;14.47;;;0.50;99.90;;;;;;5052435;28;20212;-81
2022/12/22 03:59:19;;;;;;;22.63;14.77;;;0.50;99.90;;;;;;5052470;28;20213;-81
2022/12/22 04:01:50;;;;;;;18.23;13.93;;;0.50;99.90;;;;;;5052127;28;20226;-81
2022/12/22 04:04:22;;;;;;;15.90;13.53;;;0.50;99.90;;;;;;5052246;28;20234;-81
2022/12/22 04:06:50;;;;;;;27.40;14.83;;;0.50;99.90;;;;;;5052056;28;20225;-82
2022/12/22 04:09:21;;;;;;;24.57;15.57;;;0.50;99.90;;;;;;5052192;28;20220;-81
2022/12/22 04:14:35;;;;;;;20.70;14.60;;;0.50;99.90;;;;;;5051976;28;20260;-82
2022/12/22 04:17:03;;;;;;;21.90;15.63;;;0.50;99.90;;;;;;5052122;28;20205;-82
2022/12/22 04:19:33;;;;;;;18.60;14.57;;;0.50;99.90;;;;;;5051921;28;20213;-81
2022/12/22 04:22:01;;;;;;;19.17;14.30;;;0.50;99.90;;;;;;5052202;28;20231;-81
2022/12/22 04:24:30;;;;;;;17.47;13.00;;;0.50;99.90;;;;;;5053104;28;20232;-81
2022/12/22 04:26:58;;;;;;;23.37;15.00;;;0.60;99.90;;;;;;5055642;28;20209;-81
2022/12/22 04:29:26;;;;;;;19.17;14.67;;;0.60;99.90;;;;;;5055912;28;20217;-81
2022/12/22 04:31:54;;;;;;;22.73;15.37;;;0.60;99.90;;;;;;5055788;28;20214;-81
2022/12/22 04:34:23;;;;;;;19.33;14.17;;;0.50;99.90;;;;;;5055448;28;20241;-81
2022/12/22 04:36:53;;;;;;;23.30;15.47;;;0.50;99.90;;;;;;5055873;28;20221;-82
2022/12/22 04:39:21;;;;;;;18.27;14.93;;;0.50;99.90;;;;;;5055779;28;20212;-81
2022/12/22 04:41:49;;;;;;;22.03;15.23;;;0.50;99.90;;;;;;5055335;28;20237;-81
2022/12/22 04:44:17;;;;;;;26.33;16.07;;;0.60;99.90;;;;;;5055383;28;20232;-81
2022/12/22 04:46:46;;;;;;;17.93;14.57;;;0.60;99.90;;;;;;5055089;28;20290;-82
2022/12/22 04:49:14;;;;;;;21.40;15.20;;;0.50;99.90;;;;;;5055314;28;20244;-81
2022/12/22 04:51:42;;;;;;;22.63;14.67;;;0.60;99.90;;;;;;5055648;28;20205;-81
2022/12/22 04:54:12;;;;;;;18.80;14.17;;;0.60;99.90;;;;;;5055389;28;20225;-81
2022/12/22 04:56:40;;;;;;;17.30;14.33;;;0.50;99.90;;;;;;5055521;28;20216;-81
2022/12/22 04:59:09;;;;;;;18.13;14.13;;;0.50;99.90;;;;;;5055374;28;20212;-80
2022/12/22 05:01:37;;;;;;;18.97;14.00;;;0.40;99.90;;;;;;5055087;28;20229;-82
2022/12/22 05:04:05;;;;;;;21.00;14.97;;;0.40;99.90;;;;;;5055163;28;20233;-82
2022/12/22 05:06:33;;;;;;;21.40;15.47;;;0.40;99.90;;;;;;5054834;28;20212;-81
2022/12/22 05:09:02;;;;;;;23.60;15.73;;;0.30;99.90;;;;;;5055092;28;20212;-81
2022/12/22 05:11:32;;;;;;;26.80;15.73;;;0.40;99.90;;;;;;5055065;28;20208;-82
2022/12/22 05:14:00;;;;;;;18.83;14.10;;;0.40;99.90;;;;;;5054752;28;20293;-80
2022/12/22 05:16:34;;;;;;;21.50;16.00;;;0.30;99.90;;;;;;5054798;28;20292;-81
2022/12/22 05:19:02;;;;;;;29.87;16.27;;;0.40;99.90;;;;;;5054886;28;20209;-81
2022/12/22 05:21:31;;;;;;;20.10;14.23;;;0.30;99.90;;;;;;5054582;28;20218;-81
2022/12/22 05:23:59;;;;;;;21.42;15.88;;;0.30;99.90;;;;;;5054619;28;20212;-81
2022/12/22 05:26:27;;;;;;;20.47;14.03;;;0.30;99.90;;;;;;5054631;28;20210;-81
2022/12/22 05:28:57;;;;;;;23.53;15.63;;;0.30;99.90;;;;;;5054581;28;20210;-80
2022/12/22 05:31:26;;;;;;;24.77;15.60;;;0.30;99.90;;;;;;5054502;28;20292;-80
2022/12/22 05:33:54;;;;;;;20.30;15.33;;;0.30;99.90;;;;;;5054276;28;20237;-80
2022/12/22 05:36:22;;;;;;;24.00;15.00;;;0.30;99.90;;;;;;5054108;28;20206;-81
2022/12/22 05:38:51;;;;;;;21.13;15.50;;;0.40;99.90;;;;;;5054531;28;20261;-80
2022/12/22 05:41:19;;;;;;;20.33;15.30;;;0.40;99.90;;;;;;5053900;28;20236;-81
2022/12/22 05:43:47;;;;;;;24.83;15.67;;;0.40;99.90;;;;;;5054141;28;20206;-80
2022/12/22 05:46:17;;;;;;;21.27;15.23;;;0.30;99.90;;;;;;5054225;28;20202;-81
2022/12/22 05:48:45;;;;;;;25.23;15.93;;;0.20;99.90;;;;;;5054009;28;20233;-81
2022/12/22 05:51:13;;;;;;;26.90;15.53;;;0.20;99.90;;;;;;5054269;28;20213;-81
2022/12/22 05:53:42;;;;;;;25.80;15.40;;;0.20;99.90;;;;;;5054388;28;20210;-81
2022/12/22 05:56:10;;;;;;;20.23;14.70;;;0.10;99.90;;;;;;5054484;28;20232;-81
2022/12/22 05:58:39;;;;;;;21.30;13.50;;;0.20;99.90;;;;;;5054017;28;20216;-81
2022/12/22 06:01:08;;;;;;;18.43;13.97;;;0.10;99.90;;;;;;5054170;28;20216;-81
2022/12/22 06:03:37;;;;;;;22.70;15.37;;;0.20;99.90;;;;;;5053710;28;20221;-81
2022/12/22 06:06:06;;;;;;;19.60;13.50;;;0.20;99.90;;;;;;5053852;28;20241;-80
2022/12/22 06:08:34;;;;;;;21.60;14.57;;;0.20;99.90;;;;;;5053901;28;20212;-82
2022/12/22 06:11:03;;;;;;;20.83;15.40;;;0.20;99.90;;;;;;5053933;28;20209;-81
2022/12/22 06:13:31;;;;;;;19.20;14.50;;;0.20;99.90;;;;;;5053684;28;20202;-81
2022/12/22 06:15:59;;;;;;;22.60;15.50;;;0.20;99.90;;;;;;5053474;28;20226;-81
2022/12/22 06:18:28;;;;;;;28.50;15.97;;;0.20;99.90;;;;;;5053680;28;20221;-80
2022/12/22 06:20:57;;;;;;;21.40;15.33;;;0.20;99.90;;;;;;5053639;28;20209;-80
2022/12/22 06:23:26;;;;;;;21.07;15.43;;;0.20;99.90;;;;;;5053571;28;20233;-80
2022/12/22 06:25:55;;;;;;;24.67;15.97;;;0.20;99.90;;;;;;5053560;28;20222;-82
2022/12/22 06:28:24;;;;;;;20.60;14.13;;;0.20;99.90;;;;;;5053094;28;20261;-81
2022/12/22 06:30:52;;;;;;;21.20;15.03;;;0.10;99.90;;;;;;5052990;28;20218;-81
2022/12/22 06:33:21;;;;;;;19.67;15.13;;;0.10;99.90;;;;;;5053056;28;20200;-82
2022/12/22 06:35:49;;;;;;;20.43;15.27;;;0.10;99.90;;;;;;5052992;28;20271;-82
2022/12/22 06:38:27;;;;;;;22.27;14.57;;;0.10;99.90;;;;;;5053543;28;20292;-81
2022/12/22 06:40:55;;;;;;;20.63;15.37;;;0.10;99.90;;;;;;5053244;28;20206;-82
2022/12/22 06:43:22;;;;;;;22.60;15.20;;;0.10;99.90;;;;;;5052709;28;20220;-81
2022/12/22 06:45:51;;;;;;;19.27;14.30;;;0.10;99.90;;;;;;5052973;28;20225;-81
2022/12/22 06:48:19;;;;;;;25.77;16.43;;;0.10;99.90;;;;;;5052524;28;20248;-81
2022/12/22 06:50:48;;;;;;;18.27;13.93;;;0.10;99.90;;;;;;5053015;28;20210;-81
2022/12/22 06:53:16;;;;;;;18.90;14.03;;;0.10;99.90;;;;;;5052901;28;20210;-81
2022/12/22 06:55:46;;;;;;;19.87;14.30;;;0.00;99.90;;;;;;5052621;28;20235;-82
2022/12/22 06:58:14;;;;;;;19.77;13.20;;;0.00;99.90;;;;;;5052630;28;20297;-81
2022/12/22 07:00:44;;;;;;;23.20;15.07;;;0.00;99.90;;;;;;5052828;28;20202;-81
2022/12/22 07:03:12;;;;;;;22.70;15.37;;;0.00;99.90;;;;;;5052351;28;20226;-81
2022/12/22 07:05:41;;;;;;;18.57;14.30;;;0.00;99.90;;;;;;5052693;28;20226;-81
2022/12/22 07:08:09;;;;;;;20.07;14.53;;;-0.10;99.90;;;;;;5052519;28;20209;-81
2022/12/22 07:13:26;;;;;;;24.90;14.63;;;-0.10;99.90;;;;;;5052337;28;20282;-80
2022/12/22 07:15:55;;;;;;;21.80;15.33;;;0.00;99.90;;;;;;5052637;28;20228;-81
2022/12/22 07:18:29;;;;;;;19.13;13.93;;;0.00;99.90;;;;;;5052839;28;20213;-81
2022/12/22 07:20:57;;;;;;;28.33;15.33;;;0.00;99.90;;;;;;5052417;28;20217;-80
2022/12/22 07:23:25;;;;;;;18.23;13.80;;;0.00;99.90;;;;;;5052068;28;20217;-81
2022/12/22 07:25:54;;;;;;;22.97;15.90;;;0.00;99.90;;;;;;5052231;28;20320;-81
2022/12/22 07:28:24;;;;;;;30.80;16.17;;;0.00;99.90;;;;;;5052328;28;20259;-81
2022/12/22 07:30:53;;;;;;;25.83;15.93;;;0.00;99.90;;;;;;5052902;28;20216;-81
2022/12/22 07:33:21;;;;;;;28.27;17.13;;;0.00;99.90;;;;;;5052344;28;20206;-82
2022/12/22 07:36:00;;;;;;;26.50;16.03;;;0.10;99.90;;;;;;5052000;28;20234;-81
2022/12/22 07:38:28;;;;;;;27.77;17.23;;;0.10;99.90;;;;;;5051783;28;20224;-81
2022/12/22 07:40:58;;;;;;;29.40;16.93;;;0.10;99.90;;;;;;5052369;28;20213;-80
2022/12/22 07:43:33;;;;;;;26.40;17.23;;;0.10;99.90;;;;;;5052092;28;20221;-81
2022/12/22 07:46:01;;;;;;;27.50;18.73;;;0.10;99.90;;;;;;5051985;28;20301;-81
2022/12/22 07:51:15;;;;;;;25.70;17.53;;;0.10;99.90;;;;;;5052190;28;20209;-81
2022/12/22 07:53:43;;;;;;;28.37;17.97;;;0.20;99.90;;;;;;5052130;28;20198;-81
2022/12/22 07:56:12;;;;;;;23.47;16.57;;;0.10;99.90;;;;;;5052175;28;20230;-81
2022/12/22 07:58:41;;;;;;;25.23;17.80;;;0.10;99.90;;;;;;5051511;28;20209;-81
2022/12/22 08:01:10;;;;;;;33.83;20.23;;;0.10;99.90;;;;;;5055291;28;20206;-80
2022/12/22 08:03:38;;;;;;;31.67;18.27;;;0.20;99.90;;;;;;5055327;28;20229;-80
2022/12/22 08:06:07;;;;;;;22.67;17.30;;;0.20;99.90;;;;;;5055803;28;20226;-81
2022/12/22 08:08:35;;;;;;;26.87;18.67;;;0.20;99.90;;;;;;5055732;28;20202;-81
2022/12/22 08:11:04;;;;;;;34.87;20.17;;;0.20;99.90;;;;;;5055774;28;20213;-81
2022/12/22 08:13:32;;;;;;;26.23;17.23;;;0.20;99.90;;;;;;5055497;28;20198;-81
2022/12/22 08:16:05;;;;;;;34.43;18.97;;;0.20;99.90;;;;;;5055117;28;20247;-82
2022/12/22 08:18:34;;;;;;;26.47;17.83;;;0.20;99.90;;;;;;5055440;28;20271;-82
2022/12/22 08:21:04;;;;;;;23.57;16.80;;;0.30;99.90;;;;;;5055275;28;20293;-81
2022/12/22 08:23:32;;;;;;;21.50;15.30;;;0.20;99.90;;;;;;5055775;28;20226;-82
2022/12/22 08:26:04;;;;;;;26.47;16.53;;;0.30;99.90;;;;;;5055386;28;20232;-82
2022/12/22 08:28:38;;;;;;;23.23;16.13;;;0.30;99.90;;;;;;5055182;28;20209;-81
2022/12/22 08:31:08;;;;;;;24.03;17.30;;;0.30;99.90;;;;;;5055354;28;20206;-82
2022/12/22 08:33:36;;;;;;;22.57;16.67;;;0.40;99.90;;;;;;5055480;28;20209;-82
2022/12/22 08:36:07;;;;;;;32.50;19.10;;;0.40;99.90;;;;;;5055615;28;20233;-83
2022/12/22 08:38:36;;;;;;;38.03;18.47;;;0.40;99.90;;;;;;5055188;28;20213;-82
2022/12/22 08:41:05;;;;;;;25.60;18.40;;;0.40;99.90;;;;;;5055049;28;20213;-81
2022/12/22 08:43:33;;;;;;;27.43;18.73;;;0.50;99.90;;;;;;5055065;28;20308;-81
2022/12/22 08:46:02;;;;;;;24.60;18.47;;;0.50;99.90;;;;;;5054868;28;20237;-81
2022/12/22 08:48:31;;;;;;;36.63;17.43;;;0.50;99.90;;;;;;5054663;28;20213;-81
2022/12/22 08:51:00;;;;;;;28.03;19.20;;;0.60;99.90;;;;;;5055097;28;20205;-81
2022/12/22 08:53:28;;;;;;;28.80;18.83;;;0.60;99.90;;;;;;5055040;28;20208;-81
2022/12/22 08:56:16;;;;;;;21.87;15.90;;;0.70;99.90;;;;;;5054743;28;20252;-81
2022/12/22 08:58:44;;;;;;;31.23;18.37;;;0.70;99.90;;;;;;5054753;28;20209;-81
2022/12/22 09:01:17;;;;;;;25.27;16.30;;;0.70;99.90;;;;;;5054721;28;20209;-81
2022/12/22 09:03:50;;;;;;;19.80;15.07;;;0.70;99.90;;;;;;5054665;28;20221;-81
2022/12/22 09:06:18;;;;;;;25.60;16.40;;;0.70;99.90;;;;;;5054831;28;20221;-80
2022/12/22 09:08:55;;;;;;;28.23;18.40;;;0.70;99.90;;;;;;5054458;28;20220;-80
2022/12/22 09:11:23;;;;;;;21.07;15.80;;;0.70;99.90;;;;;;5053714;28;20208;-82
2022/12/22 09:13:52;;;;;;;39.33;18.50;;;0.70;99.90;;;;;;5054252;28;20217;-81
2022/12/22 09:16:22;;;;;;;37.20;19.27;;;0.70;99.90;;;;;;5054654;28;20218;-82
2022/12/22 09:18:52;;;;;;;19.83;16.47;;;0.70;99.90;;;;;;5054453;28;20268;-81
2022/12/22 09:21:20;;;;;;;25.30;16.77;;;0.60;99.90;;;;;;5054289;28;20210;-81
2022/12/22 09:23:48;;;;;;;32.07;19.57;;;0.60;99.90;;;;;;5054059;28;20311;-82
2022/12/22 09:26:20;;;;;;;35.40;19.80;;;0.70;99.90;;;;;;5054404;28;20201;-82
2022/12/22 09:28:48;;;;;;;29.03;19.13;;;0.70;99.90;;;;;;5054355;28;20236;-82
2022/12/22 09:31:18;;;;;;;25.60;17.73;;;0.60;99.90;;;;;;5054570;28;20212;-83
2022/12/22 09:33:47;;;;;;;26.10;19.40;;;0.60;99.90;;;;;;5053738;28;20202;-81
2022/12/22 09:36:19;;;;;;;28.93;18.97;;;0.70;99.90;;;;;;5054274;28;20217;-81
2022/12/22 09:38:47;;;;;;;27.90;18.00;;;0.60;99.90;;;;;;5053708;28;20216;-81
2022/12/22 09:41:18;;;;;;;29.67;17.97;;;0.70;99.90;;;;;;5054220;28;20216;-81
2022/12/22 09:43:47;;;;;;;27.93;18.50;;;0.70;99.90;;;;;;5054106;28;20229;-82
2022/12/22 09:46:21;;;;;;;24.97;16.93;;;0.70;99.90;;;;;;5053697;28;20237;-82
2022/12/22 09:48:50;;;;;;;31.73;19.23;;;0.70;99.90;;;;;;5053942;28;20213;-81
2022/12/22 09:51:20;;;;;;;29.93;18.00;;;0.70;99.90;;;;;;5053858;28;20205;-82
2022/12/22 09:53:57;;;;;;;25.60;17.70;;;0.70;99.90;;;;;;5053568;28;20216;-81
2022/12/22 09:56:27;;;;;;;23.63;16.80;;;0.70;99.90;;;;;;5053835;28;20224;-82
2022/12/22 09:58:57;;;;;;;25.67;19.53;;;0.70;99.90;;;;;;5053391;28;20214;-82
2022/12/22 10:01:35;;;;;;;28.13;18.63;;;0.70;99.90;;;;;;5053541;28;20315;-83
2022/12/22 10:04:11;;;;;;;28.33;17.48;;;0.70;99.90;;;;;;5054012;28;20229;-83
2022/12/22 10:06:47;;;;;;;20.90;15.97;;;0.80;99.90;;;;;;5053938;28;20205;-83
2022/12/22 10:09:22;;;;;;;22.37;16.13;;;0.80;99.90;;;;;;5053927;28;20239;-83
2022/12/22 10:12:15;;;;;;;25.43;17.30;;;0.70;99.90;;;;;;5054025;28;20201;-83
2022/12/22 10:14:45;;;;;;;24.10;17.47;;;0.70;99.90;;;;;;5053604;28;20238;-83
2022/12/22 10:17:19;;;;;;;24.30;16.93;;;0.70;99.90;;;;;;5053576;28;20219;-82
2022/12/22 10:19:49;;;;;;;26.47;17.40;;;0.70;99.90;;;;;;5053617;28;20213;-83
2022/12/22 10:22:28;;;;;;;25.67;18.40;;;0.80;99.90;;;;;;5053439;28;20246;-83
2022/12/22 10:24:57;;;;;;;33.80;19.63;;;0.80;99.90;;;;;;5053701;28;20233;-83
2022/12/22 10:27:29;;;;;;;28.27;19.23;;;0.80;99.90;;;;;;5053623;28;20213;-83
2022/12/22 10:30:20;;;;;;;20.40;15.50;;;0.80;99.90;;;;;;5053548;28;20217;-83
2022/12/22 10:33:03;;;;;;;34.40;17.13;;;0.80;99.90;;;;;;5053636;28;20214;-83
2022/12/22 10:35:48;;;;;;;21.23;14.73;;;0.90;99.90;;;;;;5053661;28;20230;-84
2022/12/22 10:38:23;;;;;;;28.90;16.33;;;0.90;99.90;;;;;;5052935;28;20216;-83
2022/12/22 10:40:54;;;;;;;24.40;16.70;;;0.90;99.90;;;;;;5053370;28;20205;-83
2022/12/22 10:43:32;;;;;;;21.20;14.90;;;0.90;99.90;;;;;;5053592;28;20210;-83
2022/12/22 10:46:02;;;;;;;23.70;14.83;;;0.80;99.90;;;;;;5052952;28;20229;-83
2022/12/22 10:48:33;;;;;;;23.43;15.57;;;0.80;99.90;;;;;;5053117;28;20310;-84
2022/12/22 10:51:02;;;;;;;25.97;15.57;;;0.80;99.90;;;;;;5053700;28;20216;-83
2022/12/22 10:53:46;;;;;;;28.90;16.00;;;0.90;99.90;;;;;;5053303;28;20214;-83
2022/12/22 10:56:23;;;;;;;18.27;14.50;;;0.90;99.90;;;;;;5052767;28;20235;-83
2022/12/22 10:58:54;;;;;;;26.20;14.47;;;1.00;99.90;;;;;;5052700;28;20205;-83
2022/12/22 11:01:27;;;;;;;21.90;15.93;;;0.90;99.90;;;;;;5052929;28;20206;-83
2022/12/22 11:03:57;;;;;;;27.83;14.83;;;0.90;99.90;;;;;;5053185;28;20215;-83
2022/12/22 11:06:25;;;;;;;25.67;16.57;;;0.90;99.90;;;;;;5052960;28;20219;-83
2022/12/22 11:08:55;;;;;;;25.83;13.97;;;0.90;99.90;;;;;;5052506;28;20206;-83
2022/12/22 11:11:50;;;;;;;22.93;17.07;;;0.90;99.90;;;;;;5052794;28;20214;-83
2022/12/22 11:14:29;;;;;;;26.73;17.73;;;1.00;99.90;;;;;;5052549;28;20244;-83
2022/12/22 11:17:03;;;;;;;24.50;16.90;;;1.00;99.90;;;;;;5052782;28;20213;-83
2022/12/22 11:19:50;;;;;;;20.67;14.73;;;1.10;99.90;;;;;;5052871;28;20217;-82
2022/12/22 11:22:31;;;;;;;22.70;15.00;;;1.10;99.90;;;;;;5052578;28;20209;-83
2022/12/22 11:25:17;;;;;;;22.27;15.93;;;1.00;99.90;;;;;;5052287;28;20234;-83
2022/12/22 11:28:00;;;;;;;20.23;14.90;;;1.10;99.90;;;;;;5052506;28;20212;-83
2022/12/22 11:30:38;;;;;;;21.20;16.25;;;1.00;99.90;;;;;;5052824;28;20213;-83
2022/12/22 11:33:21;;;;;;;21.87;14.53;;;1.00;99.90;;;;;;5052436;28;20201;-83
2022/12/22 11:35:58;;;;;;;22.37;14.73;;;1.00;99.90;;;;;;5051601;28;20244;-83
2022/12/22 11:38:38;;;;;;;22.97;16.07;;;1.00;99.90;;;;;;5052525;28;20228;-83
2022/12/22 11:41:20;;;;;;;25.30;16.50;;;1.00;99.90;;;;;;5053144;28;20210;-83
2022/12/22 11:43:59;;;;;;;20.23;14.63;;;1.00;99.90;;;;;;5052591;28;20213;-83
2022/12/22 11:46:34;;;;;;;24.27;15.90;;;1.00;99.90;;;;;;5052387;28;20231;-83
2022/12/22 11:49:16;;;;;;;19.40;14.90;;;1.00;99.90;;;;;;5052370;28;20208;-83
2022/12/22 11:52:11;;;;;;;26.70;17.40;;;1.00;99.90;;;;;;5052782;28;20220;-83
2022/12/22 11:54:59;;;;;;;34.08;18.15;;;1.00;99.90;;;;;;5052004;28;20251;-83
2022/12/22 11:57:39;;;;;;;25.50;17.13;;;1.10;99.90;;;;;;5052314;28;20301;-83
2022/12/22 12:00:11;;;;;;;28.73;17.63;;;1.00;99.90;;;;;;5052476;28;20213;-82
2022/12/22 12:03:25;;;;;;;25.83;16.47;;;1.10;99.90;;;;;;5052225;28;20296;-83
2022/12/22 12:06:29;;;;;;;23.60;17.17;;;1.10;99.90;;;;;;5052052;28;20244;-83
2022/12/22 12:09:10;;;;;;;25.17;18.00;;;1.10;99.90;;;;;;5047401;28;20213;-83
2022/12/22 12:11:46;;;;;;;21.87;16.97;;;1.20;99.90;;;;;;5052629;28;20205;-83
2022/12/22 12:14:24;;;;;;;24.85;18.40;;;1.20;99.90;;;;;;5052124;28;20237;-83
2022/12/22 12:16:58;;;;;;;28.83;17.60;;;1.20;99.90;;;;;;5051853;28;20229;-83
2022/12/22 12:20:04;;;;;;;28.37;19.10;;;1.20;99.90;;;;;;5052310;28;20205;-83
2022/12/22 12:22:43;;;;;;;26.38;17.73;;;1.20;99.90;;;;;;5041771;28;20208;-83
2022/12/22 12:25:24;;;;;;;26.23;18.63;;;1.30;99.90;;;;;;5051808;28;20238;-84
2022/12/22 12:28:06;;;;;;;32.70;18.65;;;1.30;99.90;;;;;;5052104;28;20202;-83
2022/12/22 12:30:44;;;;;;;28.23;19.17;;;1.30;99.90;;;;;;5051958;28;20197;-83
2022/12/22 12:33:17;;;;;;;23.77;18.15;;;1.30;99.90;;;;;;5051845;28;20205;-83
2022/12/22 12:35:58;;;;;;;34.13;20.10;;;1.30;99.90;;;;;;5051668;28;20245;-83
2022/12/22 12:38:34;;;;;;;30.77;17.90;;;1.40;99.90;;;;;;5051525;28;20221;-83
2022/12/22 12:41:30;;;;;;;25.42;18.45;;;1.40;99.90;;;;;;5051646;28;20201;-83
2022/12/22 12:43:59;;;;;;;36.88;19.48;;;1.40;99.90;;;;;;5054752;28;20216;-83
2022/12/22 12:47:12;;;;;;;30.73;19.80;;;1.50;99.90;;;;;;5056606;28;20221;-83
2022/12/22 12:50:05;;;;;;;23.88;17.48;;;1.50;99.90;;;;;;5047260;28;20296;-82
2022/12/22 12:53:16;;;;;;;21.67;16.73;;;1.50;99.90;;;;;;5055978;28;20205;-82
2022/12/22 12:56:02;;;;;;;25.40;19.23;;;1.50;99.90;;;;;;5062428;28;20252;-83
2022/12/22 12:58:51;;;;;;;29.27;17.47;;;1.50;99.90;;;;;;5056302;28;20269;-83
2022/12/22 13:02:00;;;;;;;29.63;19.25;;;1.50;99.90;;;;;;5055849;28;20208;-82
2022/12/22 13:05:11;;;;;;;35.00;19.52;;;1.60;99.90;;;;;;5055204;28;20283;-82
2022/12/22 13:08:22;;;;;;;28.75;18.80;;;1.60;99.90;;;;;;5055292;28;20260;-83
2022/12/22 13:11:21;;;;;;;21.35;16.20;;;1.60;99.90;;;;;;5055159;28;20202;-81
2022/12/22 13:14:09;;;;;;;25.65;17.92;;;1.70;99.90;;;;;;5055045;28;20205;-82
2022/12/22 13:16:39;;;;;;;22.67;16.58;;;1.80;99.90;;;;;;5055282;28;20213;-82
2022/12/22 13:19:33;;;;;;;27.43;18.07;;;1.80;99.90;;;;;;5054884;28;20210;-82
2022/12/22 13:22:02;;;;;;;26.92;18.35;;;1.80;99.90;;;;;;5044604;28;20293;-83
2022/12/22 13:24:40;;;;;;;31.10;18.75;;;1.80;99.90;;;;;;5054787;28;20230;-83
2022/12/22 13:27:16;;;;;;;26.05;17.38;;;1.80;99.90;;;;;;5054278;28;20218;-82
2022/12/22 13:29:47;;;;;;;23.50;17.70;;;1.80;99.90;;;;;;5054805;28;20217;-82
2022/12/22 13:32:21;;;;;;;29.35;19.50;;;1.80;99.90;;;;;;5054717;28;20212;-83
2022/12/22 13:34:57;;;;;;;30.75;19.25;;;1.90;99.90;;;;;;5054509;28;20324;-82
2022/12/22 13:37:47;;;;;;;24.27;18.48;;;1.80;99.90;;;;;;5054360;28;20205;-84
2022/12/22 13:40:19;;;;;;;24.55;17.40;;;1.90;99.90;;;;;;5054742;28;20212;-83
2022/12/22 13:42:50;;;;;;;27.17;19.88;;;2.00;99.90;;;;;;5054602;28;20211;-82
2022/12/22 13:45:31;;;;;;;32.15;20.33;;;2.00;99.90;;;;;;5054291;28;20236;-83
2022/12/22 13:48:02;;;;;;;27.58;20.73;;;2.10;99.90;;;;;;5054235;28;20212;-83
2022/12/22 13:50:36;;;;;;;32.67;20.15;;;2.10;99.90;;;;;;5054503;28;20205;-83
2022/12/22 13:53:08;;;;;;;26.83;20.73;;;2.10;99.90;;;;;;5054420;28;20209;-83
2022/12/22 13:55:36;;;;;;;32.20;20.67;;;2.20;99.90;;;;;;5054548;28;20237;-82
2022/12/22 13:58:08;;;;;;;53.38;21.42;;;2.20;99.90;;;;;;5053401;28;20210;-82
2022/12/22 14:00:36;;;;;;;43.17;21.73;;;2.20;99.90;;;;;;5054196;28;20205;-82
2022/12/22 14:03:14;;;;;;;34.75;20.10;;;2.20;99.90;;;;;;5053823;28;20213;-82
2022/12/22 14:06:19;;;;;;;30.57;21.57;;;2.20;99.90;;;;;;5053601;28;20222;-82
2022/12/22 14:08:47;;;;;;;26.80;20.00;;;2.20;99.90;;;;;;5053918;28;20212;-82
2022/12/22 14:11:15;;;;;;;28.70;20.25;;;2.20;99.90;;;;;;5053493;28;20210;-82
2022/12/22 14:13:44;;;;;;;32.00;23.05;;;2.20;99.90;;;;;;5053788;28;20202;-82
2022/12/22 14:16:14;;;;;;;31.08;22.52;;;2.10;99.90;;;;;;5053863;28;20238;-82
2022/12/22 14:18:43;;;;;;;34.00;20.33;;;2.10;99.90;;;;;;5053546;28;20217;-82
2022/12/22 14:21:13;;;;;;;34.88;24.30;;;2.10;99.90;;;;;;5054228;28;20210;-82
2022/12/22 14:23:43;;;;;;;30.42;22.42;;;2.10;99.90;;;;;;5053631;28;20210;-82
2022/12/22 14:26:17;;;;;;;28.88;20.48;;;2.10;99.90;;;;;;5053339;28;20261;-83
2022/12/22 14:28:52;;;;;;;30.73;22.13;;;2.10;99.90;;;;;;5053434;28;20228;-82
2022/12/22 14:31:20;;;;;;;31.42;22.67;;;2.10;99.90;;;;;;5053644;28;20215;-82
2022/12/22 14:33:54;;;;;;;39.60;22.77;;;2.10;99.90;;;;;;5053486;28;20213;-82
2022/12/22 14:36:25;;;;;;;46.40;25.45;;;2.10;99.90;;;;;;5053602;28;20198;-82
2022/12/22 14:38:55;;;;;;;30.47;22.57;;;2.10;99.90;;;;;;5053039;28;20214;-82
2022/12/22 14:41:41;;;;;;;30.80;22.35;;;2.10;99.90;;;;;;5053277;28;20212;-82
2022/12/22 14:44:16;;;;;;;32.63;22.58;;;2.10;99.90;;;;;;5053397;28;20330;-81
2022/12/22 14:46:45;;;;;;;32.70;22.45;;;2.10;99.90;;;;;;5053113;28;20225;-81
2022/12/22 14:49:16;;;;;;;33.50;22.30;;;2.10;99.90;;;;;;5053439;28;20214;-82
2022/12/22 14:51:55;;;;;;;29.10;21.85;;;2.10;99.90;;;;;;5053266;28;20223;-82
2022/12/22 14:54:28;;;;;;;38.55;20.80;;;2.10;99.90;;;;;;5053075;28;20225;-81
2022/12/22 14:57:03;;;;;;;34.03;22.80;;;2.10;99.90;;;;;;5053312;28;20237;-82
2022/12/22 14:59:40;;;;;;;35.08;23.15;;;2.20;99.90;;;;;;5053049;28;20212;-83
2022/12/22 15:02:22;;;;;;;37.20;23.42;;;2.20;99.90;;;;;;5053169;28;20248;-83
2022/12/22 15:05:10;;;;;;;30.92;21.85;;;2.20;99.90;;;;;;5052735;28;20240;-83
2022/12/22 15:07:50;;;;;;;29.88;22.05;;;2.20;99.90;;;;;;5052472;28;20225;-83
2022/12/22 15:10:38;;;;;;;33.35;21.70;;;2.20;99.90;;;;;;5051999;28;20301;-83
2022/12/22 15:13:11;;;;;;;33.33;22.77;;;2.30;99.90;;;;;;5053349;28;20208;-83
2022/12/22 15:15:40;;;;;;;31.00;23.88;;;2.30;99.90;;;;;;5052769;28;20237;-83
2022/12/22 15:18:14;;;;;;;33.88;24.02;;;2.30;99.90;;;;;;5052528;28;20205;-83
2022/12/22 15:20:42;;;;;;;39.33;24.80;;;2.30;99.90;;;;;;5052810;28;20202;-83
2022/12/22 15:23:16;;;;;;;30.45;22.40;;;2.30;99.90;;;;;;5052518;28;20214;-86
2022/12/22 15:25:44;;;;;;;35.92;23.73;;;2.40;99.90;;;;;;5052900;28;20252;-86
2022/12/22 15:28:13;;;;;;;38.58;23.13;;;2.40;99.90;;;;;;5052402;28;20230;-86
2022/12/22 15:30:41;;;;;;;44.78;23.60;;;2.40;99.90;;;;;;5052827;28;20209;-87
2022/12/22 15:33:13;;;;;;;34.35;23.85;;;2.40;99.90;;;;;;5052588;28;20292;-86
2022/12/22 15:35:42;;;;;;;27.42;22.70;;;2.40;99.90;;;;;;5052257;28;20234;-87
2022/12/22 15:38:15;;;;;;;28.63;22.38;;;2.40;99.90;;;;;;5052630;28;20198;-86
2022/12/22 15:40:43;;;;;;;31.48;23.00;;;2.50;99.90;;;;;;5052617;28;20237;-87
2022/12/22 15:43:13;;;;;;;34.65;23.10;;;2.40;99.90;;;;;;5052723;28;20202;-86
2022/12/22 15:46:03;;;;;;;37.45;23.65;;;2.40;99.90;;;;;;5052233;28;20225;-86
2022/12/22 15:48:35;;;;;;;32.30;21.83;;;2.40;99.90;;;;;;5051714;28;20233;-86
2022/12/22 15:51:05;;;;;;;39.85;22.20;;;2.40;99.90;;;;;;5052485;28;20209;-87
2022/12/22 15:53:36;;;;;;;36.83;22.20;;;2.40;99.90;;;;;;5052405;28;20202;-87
2022/12/22 15:56:06;;;;;;;30.42;20.83;;;2.40;99.90;;;;;;5052350;28;20232;-86
2022/12/22 15:58:41;;;;;;;32.55;22.75;;;2.40;99.90;;;;;;5052025;28;20257;-87
2022/12/22 16:01:10;;;;;;;30.10;22.10;;;2.40;99.90;;;;;;5052297;28;20206;-87
2022/12/22 16:03:38;;;;;;;27.80;21.48;;;2.30;99.90;;;;;;5052444;28;20241;-86
2022/12/22 16:06:13;;;;;;;37.30;24.58;;;2.30;99.90;;;;;;5051900;28;20287;-87
2022/12/22 16:08:45;;;;;;;29.00;21.52;;;2.40;99.90;;;;;;5052144;28;20230;-86
2022/12/22 16:11:14;;;;;;;37.22;22.65;;;2.40;99.90;;;;;;5052161;28;20305;-86
2022/12/22 16:13:42;;;;;;;28.10;22.08;;;2.40;99.90;;;;;;5052196;28;20210;-86
2022/12/22 16:16:10;;;;;;;39.97;23.15;;;2.40;99.90;;;;;;5051988;28;20230;-86
2022/12/22 16:18:39;;;;;;;34.92;23.85;;;2.40;99.90;;;;;;5051966;28;20208;-87
2022/12/22 16:21:13;;;;;;;33.65;21.02;;;2.40;99.90;;;;;;5054104;28;20212;-86
2022/12/22 16:23:46;;;;;;;28.48;22.17;;;2.40;99.90;;;;;;5056306;28;20206;-85
2022/12/22 16:26:17;;;;;;;31.75;20.90;;;2.40;99.90;;;;;;5056061;28;20233;-85
2022/12/22 16:28:46;;;;;;;27.95;21.95;;;2.50;99.90;;;;;;5055620;28;20220;-86
2022/12/22 16:31:20;;;;;;;30.58;21.85;;;2.60;99.90;;;;;;5055799;28;20218;-86
2022/12/22 16:33:48;;;;;;;34.00;22.58;;;2.60;99.90;;;;;;5055738;28;20216;-85
2022/12/22 16:36:17;;;;;;;35.58;19.73;;;2.70;99.90;;;;;;5055421;28;20216;-85
2022/12/22 16:38:47;;;;;;;29.23;20.73;;;2.70;99.90;;;;;;5055478;28;20213;-86
2022/12/22 16:41:21;;;;;;;29.35;21.38;;;2.80;99.90;;;;;;5055635;28;20292;-86
2022/12/22 16:43:51;;;;;;;29.58;19.75;;;2.90;99.90;;;;;;5055267;28;20270;-86